Agnew, Nebraska
Current Conditions -  °F | °C
As of 7:54 AM on Saturday 20 Dec 2014 (Local Time) from KLNK Reporting Station
Haze Haze  
Wind Chill: 26°   Ceiling: 400
Heat Index: 32°   Visibility: 5mi
Dew Point: 31°   Wind: 6mph
Humidity: 96%   Direction: 180°S
Pressure: 30.11"   Gusts: NA
Location:  40.9964°N, 96.8004°W
Report Text: KLNK 201354Z 18005KT 5SM BR OVC004 00/M01 A3011 RMK AO2 SLP207 T00001006
Loading
Personal Weather Stations






























Interactive Weather Map New forecast layout! Learn more

10-Day Weather Forecast

Advertisements
Track Severe Weather on mobile